Time;durP1;ratioP1;P1;durP2;ratioP2;P2;SDS_P1;SDS_P2;PMS_P1;PMS_P2;Temp;Humidity;BMP_temperature;BMP_pressure;BME280_temperature;BME280_humidity;BME280_pressure;Samples;Min_cycle;Max_cycle;Signal;HPM_P1;HPM_P2
2023/04/12 00:00:30;;;;;;;8.63;2.77;;;;;;;14.17;57.91;99739.63;4959977;28;20444;-69
2023/04/12 00:02:58;;;;;;;8.70;2.78;;;;;;;14.09;58.41;99734.53;4959979;28;20027;-69
2023/04/12 00:05:26;;;;;;;7.15;3.03;;;;;;;14.04;58.12;99729.34;4959887;28;20487;-69
2023/04/12 00:07:54;;;;;;;6.88;3.08;;;;;;;14.02;58.52;99725.03;4960388;28;20173;-69
2023/04/12 00:10:20;;;;;;;6.78;2.90;;;;;;;14.01;58.32;99718.00;4961685;28;20069;-69
2023/04/12 00:12:46;;;;;;;7.40;2.90;;;;;;;13.95;57.83;99718.13;4959867;28;20031;-69
2023/04/12 00:15:12;;;;;;;6.85;2.80;;;;;;;13.91;58.49;99707.63;4959417;28;20479;-69
2023/04/12 00:17:38;;;;;;;6.50;2.45;;;;;;;13.87;58.57;99705.13;4974325;28;20023;-69
2023/04/12 00:20:12;;;;;;;9.97;3.70;;;;;;;13.84;58.73;99698.13;4972790;28;20046;-69
2023/04/12 00:22:38;;;;;;;7.63;3.13;;;;;;;13.83;58.81;99692.88;4978971;28;20080;-69
2023/04/12 00:25:05;;;;;;;7.60;2.85;;;;;;;13.78;58.68;99685.91;4978927;28;20027;-69
2023/04/12 00:27:30;;;;;;;5.07;2.35;;;;;;;13.74;58.93;99673.69;4978638;28;20026;-69
2023/04/12 00:29:56;;;;;;;6.37;2.50;;;;;;;13.74;58.73;99681.63;4977249;28;20027;-69
2023/04/12 00:32:21;;;;;;;7.07;2.73;;;;;;;13.71;58.93;99683.47;4962084;28;20034;-69
2023/04/12 00:34:46;;;;;;;7.83;2.50;;;;;;;13.70;58.72;99671.16;4963107;28;20026;-69
2023/04/12 00:37:12;;;;;;;7.00;2.60;;;;;;;13.67;58.72;99669.47;4978518;28;20061;-69
2023/04/12 00:39:37;;;;;;;6.97;2.33;;;;;;;13.66;58.70;99665.09;4978620;28;20322;-69
2023/04/12 00:42:04;;;;;;;7.70;2.63;;;;;;;13.63;58.91;99655.44;4978633;28;20030;-69
2023/04/12 00:44:30;;;;;;;8.95;2.60;;;;;;;13.59;58.73;99644.97;4977169;28;20414;-69
2023/04/12 00:46:57;;;;;;;8.68;2.45;;;;;;;13.58;58.75;99641.47;4971326;28;20114;-69
2023/04/12 00:49:23;;;;;;;8.43;2.50;;;;;;;13.58;59.01;99637.94;4959583;28;20061;-69
2023/04/12 00:51:48;;;;;;;7.22;2.78;;;;;;;13.58;59.04;99630.91;4958907;28;20027;-69
2023/04/12 00:54:16;;;;;;;7.07;2.63;;;;;;;13.60;58.94;99633.50;4960575;28;20059;-69
2023/04/12 00:56:44;;;;;;;8.98;3.13;;;;;;;13.57;58.98;99626.53;4960239;28;20035;-69
2023/04/12 00:59:10;;;;;;;6.65;2.58;;;;;;;13.55;59.02;99627.47;4957757;28;20469;-69
2023/04/12 01:01:37;;;;;;;7.67;2.43;;;;;;;13.54;58.86;99628.38;4958851;28;20062;-69
2023/04/12 01:04:03;;;;;;;8.57;3.35;;;;;;;13.44;59.02;99622.44;4959241;28;20270;-69
2023/04/12 01:06:54;;;;;;;7.35;2.88;;;;;;;13.37;59.54;99613.78;4962645;28;20045;-69
2023/04/12 01:09:51;;;;;;;7.10;2.75;;;;;;;13.30;60.11;99612.19;4959160;28;20019;-69
2023/04/12 01:12:31;;;;;;;8.27;2.80;;;;;;;13.27;59.49;99609.63;4959005;28;20447;-69
2023/04/12 01:15:25;;;;;;;7.25;3.15;;;;;;;13.26;60.22;99603.50;4957984;28;20030;-70
2023/04/12 01:18:14;;;;;;;7.32;3.20;;;;;;;13.25;59.80;99592.94;4973901;28;20045;-69
2023/04/12 01:20:43;;;;;;;7.72;2.92;;;;;;;13.18;60.11;99589.59;4970478;28;20038;-69
2023/04/12 01:23:43;;;;;;;6.90;3.08;;;;;;;13.07;61.33;99593.38;4978036;28;20030;-69
2023/04/12 01:26:14;;;;;;;10.70;3.50;;;;;;;12.96;61.71;99581.34;4977927;28;20711;-69
2023/04/12 01:28:44;;;;;;;9.50;3.75;;;;;;;12.85;61.69;99571.03;4975829;28;20026;-69
2023/04/12 01:31:11;;;;;;;8.30;2.92;;;;;;;12.77;61.89;99574.72;4970634;28;20042;-69
2023/04/12 01:33:38;;;;;;;7.75;3.60;;;;;;;12.66;62.37;99567.97;4958730;28;20054;-69
2023/04/12 01:36:14;;;;;;;10.27;3.33;;;;;;;12.59;62.61;99561.97;4972355;28;20479;-69
2023/04/12 01:38:40;;;;;;;8.93;3.00;;;;;;;12.61;62.04;99558.38;4976643;28;20409;-69
2023/04/12 01:41:07;;;;;;;8.90;3.17;;;;;;;12.63;61.88;99553.91;4977954;28;20031;-69
2023/04/12 01:43:32;;;;;;;10.45;3.40;;;;;;;12.55;62.71;99547.97;4976549;28;20034;-69
2023/04/12 01:45:58;;;;;;;9.00;3.70;;;;;;;12.50;62.63;99539.28;4976450;28;20537;-69
2023/04/12 01:48:24;;;;;;;8.85;3.00;;;;;;;12.49;62.63;99530.50;4959033;28;20023;-69
2023/04/12 01:50:58;;;;;;;6.90;2.90;;;;;;;12.43;62.79;99533.28;4962665;28;20570;-69
2023/04/12 01:53:44;;;;;;;9.47;3.70;;;;;;;12.30;64.09;99531.84;4959370;28;20267;-69
2023/04/12 01:56:11;;;;;;;11.05;3.70;;;;;;;12.28;63.20;99534.50;4958445;28;20024;-69
2023/04/12 01:58:38;;;;;;;10.18;3.13;;;;;;;12.31;62.73;99537.06;4958382;28;20054;-69
2023/04/12 02:01:05;;;;;;;7.20;3.20;;;;;;;12.35;63.11;99530.81;4957193;28;20032;-69
2023/04/12 02:03:32;;;;;;;10.48;3.65;;;;;;;12.40;62.73;99529.84;4966341;28;20062;-69
2023/04/12 02:05:58;;;;;;;7.33;3.40;;;;;;;12.40;62.83;99529.84;4958221;28;20110;-69
2023/04/12 02:08:25;;;;;;;9.55;3.60;;;;;;;12.34;62.77;99517.66;4958412;28;20159;-69
2023/04/12 02:10:50;;;;;;;10.75;3.63;;;;;;;12.30;63.19;99519.50;4958379;28;20099;-69
2023/04/12 02:13:17;;;;;;;8.87;3.90;;;;;;;12.25;63.17;99517.88;4958308;28;20023;-69
2023/04/12 02:15:43;;;;;;;10.18;3.35;;;;;;;12.26;63.00;99512.56;4957866;28;20039;-69
2023/04/12 02:18:08;;;;;;;10.48;3.50;;;;;;;12.27;62.99;99505.50;4975689;28;20039;-69
2023/04/12 02:20:34;;;;;;;9.13;3.40;;;;;;;12.25;63.09;99495.00;4969893;28;20031;-69
2023/04/12 02:23:00;;;;;;;8.50;3.50;;;;;;;12.28;62.75;99494.91;4977384;28;20443;-69
2023/04/12 02:25:26;;;;;;;9.23;3.40;;;;;;;12.32;62.72;99504.50;4976151;28;20097;-69
2023/04/12 02:27:51;;;;;;;9.93;3.57;;;;;;;12.28;63.12;99497.56;4981076;28;20034;-69
2023/04/12 02:30:17;;;;;;;7.95;3.20;;;;;;;12.29;62.83;99508.97;4978792;28;20026;-69
2023/04/12 02:32:44;;;;;;;6.93;3.57;;;;;;;12.30;62.60;99495.75;4961963;28;20429;-69
2023/04/12 02:35:18;;;;;;;9.00;3.70;;;;;;;12.31;62.70;99502.75;4968064;28;20072;-70
2023/04/12 02:37:47;;;;;;;9.88;3.65;;;;;;;12.24;63.08;99501.19;4981037;28;20074;-69
2023/04/12 02:40:14;;;;;;;9.07;3.75;;;;;;;12.12;62.88;99498.81;4980694;28;20394;-69
2023/04/12 02:42:41;;;;;;;7.68;3.70;;;;;;;12.01;63.77;99499.94;4980859;28;20510;-69
2023/04/12 02:45:07;;;;;;;9.97;3.43;;;;;;;11.94;63.93;99507.97;4980520;28;20606;-70
2023/04/12 02:47:32;;;;;;;10.23;3.80;;;;;;;11.88;63.72;99491.38;4975074;28;20405;-70
2023/04/12 02:49:57;;;;;;;8.37;3.77;;;;;;;11.79;64.52;99486.28;4964059;28;20154;-69
2023/04/12 02:52:23;;;;;;;9.60;3.80;;;;;;;11.73;64.75;99476.75;4961446;28;20023;-69
2023/04/12 02:54:49;;;;;;;9.20;3.63;;;;;;;11.74;64.57;99465.31;4961203;28;20039;-69
2023/04/12 02:57:15;;;;;;;8.73;3.50;;;;;;;11.78;64.24;99461.69;4961757;28;20059;-69
2023/04/12 02:59:41;;;;;;;7.63;3.10;;;;;;;11.83;64.18;99463.34;4972380;28;20114;-69
2023/04/12 03:02:07;;;;;;;9.25;3.42;;;;;;;11.82;63.88;99472.19;4959931;28;20019;-69
2023/04/12 03:04:33;;;;;;;9.75;3.60;;;;;;;11.83;63.49;99466.00;4961095;28;20559;-69
2023/04/12 03:06:59;;;;;;;8.80;3.60;;;;;;;11.82;63.98;99465.16;4961399;28;20054;-69
2023/04/12 03:09:24;;;;;;;11.50;4.03;;;;;;;11.75;64.43;99466.16;4961232;28;20051;-69
2023/04/12 03:11:50;;;;;;;12.13;3.70;;;;;;;11.69;64.68;99461.88;4961074;28;20031;-69
2023/04/12 03:14:16;;;;;;;11.17;3.80;;;;;;;11.68;64.47;99454.88;4960707;28;20098;-69
2023/04/12 03:16:42;;;;;;;9.15;3.83;;;;;;;11.65;64.64;99449.66;4967895;28;20034;-69
2023/04/12 03:19:08;;;;;;;9.00;3.65;;;;;;;11.69;64.84;99456.59;4976682;28;20031;-69
2023/04/12 03:21:34;;;;;;;7.45;3.45;;;;;;;11.72;64.23;99456.56;4977326;28;20027;-69
2023/04/12 03:23:59;;;;;;;8.83;3.70;;;;;;;11.77;64.06;99448.53;4980311;28;20085;-69
2023/04/12 03:26:25;;;;;;;8.20;3.60;;;;;;;11.73;64.38;99447.75;4980101;28;20030;-69
2023/04/12 03:28:59;;;;;;;8.00;3.70;;;;;;;11.69;64.47;99445.19;4977577;28;20106;-69
2023/04/12 03:31:25;;;;;;;9.35;3.58;;;;;;;11.65;64.69;99441.75;4970804;28;20027;-69
2023/04/12 03:33:51;;;;;;;9.30;4.03;;;;;;;11.63;64.42;99446.19;4960775;28;20123;-69
2023/04/12 03:36:17;;;;;;;8.83;3.70;;;;;;;11.64;64.36;99434.75;4976175;28;20019;-70
2023/04/12 03:38:42;;;;;;;9.20;3.80;;;;;;;11.65;64.47;99433.84;4978039;28;20298;-69
2023/04/12 03:41:08;;;;;;;7.93;3.57;;;;;;;11.65;64.23;99436.47;4979851;28;20054;-70
2023/04/12 03:43:36;;;;;;;8.27;3.70;;;;;;;11.66;63.75;99435.56;4975623;28;20498;-69
2023/04/12 03:46:04;;;;;;;9.07;3.85;;;;;;;11.63;64.08;99435.66;4960518;28;20027;-69
2023/04/12 03:48:30;;;;;;;9.02;3.67;;;;;;;11.58;64.25;99442.78;4979676;28;20031;-69
2023/04/12 03:50:58;;;;;;;9.75;4.03;;;;;;;11.48;64.63;99436.84;4979932;28;20031;-69
2023/04/12 03:53:26;;;;;;;10.43;3.80;;;;;;;11.42;64.62;99437.84;4979525;28;20038;-69
2023/04/12 03:55:51;;;;;;;10.82;4.20;;;;;;;11.39;64.35;99429.16;4967829;28;20031;-69
2023/04/12 03:58:18;;;;;;;11.38;4.10;;;;;;;11.33;64.88;99428.38;4960212;28;20051;-70
2023/04/12 04:00:44;;;;;;;11.03;4.30;;;;;;;11.30;65.34;99419.66;4959993;28;20427;-69
2023/04/12 04:03:09;;;;;;;8.88;4.10;;;;;;;11.24;65.23;99422.44;4960121;28;20035;-69
2023/04/12 04:05:35;;;;;;;12.50;4.00;;;;;;;11.19;65.54;99426.00;4960159;28;20122;-71
2023/04/12 04:08:01;;;;;;;9.73;3.67;;;;;;;11.21;65.05;99418.06;4959949;28;20027;-69
2023/04/12 04:10:27;;;;;;;9.30;3.55;;;;;;;11.21;65.18;99412.81;4960361;28;20500;-69
2023/04/12 04:12:53;;;;;;;10.35;4.40;;;;;;;11.16;65.42;99422.56;4959960;28;20031;-69
2023/04/12 04:15:18;;;;;;;9.15;3.90;;;;;;;11.12;65.33;99429.66;4958242;28;20074;-69
2023/04/12 04:17:46;;;;;;;10.20;4.00;;;;;;;11.10;65.64;99431.47;4975345;28;20467;-69
2023/04/12 04:20:12;;;;;;;9.32;4.15;;;;;;;11.09;65.49;99424.47;4972923;28;20058;-69
2023/04/12 04:22:38;;;;;;;10.38;3.90;;;;;;;11.09;65.40;99431.47;4978862;28;20137;-69
2023/04/12 04:25:04;;;;;;;10.13;4.20;;;;;;;11.08;65.31;99435.91;4977817;28;20065;-69
2023/04/12 04:27:33;;;;;;;8.90;4.13;;;;;;;11.08;65.64;99433.25;4978810;28;20102;-69
2023/04/12 04:30:01;;;;;;;10.77;4.13;;;;;;;11.07;65.42;99436.78;4976584;28;20041;-69
2023/04/12 04:32:27;;;;;;;8.25;3.95;;;;;;;11.08;64.88;99433.25;4977163;28;20031;-69
2023/04/12 04:34:55;;;;;;;8.02;4.10;;;;;;;11.08;65.16;99435.91;4974646;28;20035;-69
2023/04/12 04:37:20;;;;;;;18.90;3.93;;;;;;;11.08;64.95;99438.53;4958213;28;20077;-70
2023/04/12 04:39:46;;;;;;;7.80;4.13;;;;;;;11.07;65.04;99444.69;4964580;28;20022;-70
2023/04/12 04:42:11;;;;;;;10.00;3.50;;;;;;;11.06;65.17;99441.19;4959684;28;20063;-69
2023/04/12 04:44:37;;;;;;;8.67;3.13;;;;;;;11.08;64.66;99446.44;4959333;28;20034;-69
2023/04/12 04:47:03;;;;;;;7.72;3.75;;;;;;;11.08;64.81;99443.81;4967453;28;20033;-69
2023/04/12 04:49:29;;;;;;;7.37;3.50;;;;;;;11.04;64.91;99440.34;4978098;28;20027;-69
2023/04/12 04:51:55;;;;;;;7.60;3.50;;;;;;;11.04;64.99;99442.13;4972293;28;20037;-69
2023/04/12 04:54:20;;;;;;;7.23;3.50;;;;;;;11.02;64.83;99434.25;4959334;28;20027;-69
2023/04/12 04:56:45;;;;;;;11.70;4.37;;;;;;;11.01;64.92;99439.56;4959129;28;20051;-69
2023/04/12 04:59:11;;;;;;;10.45;3.70;;;;;;;11.02;64.40;99438.66;4959174;28;20102;-69
2023/04/12 05:01:36;;;;;;;8.33;3.70;;;;;;;10.99;64.26;99439.56;4958845;28;20027;-69
2023/04/12 05:04:02;;;;;;;11.03;3.87;;;;;;;10.97;64.85;99443.13;4957898;28;20027;-69
2023/04/12 05:06:28;;;;;;;9.95;3.70;;;;;;;10.94;64.71;99445.81;4959058;28;20112;-69
2023/04/12 05:08:53;;;;;;;7.50;3.50;;;;;;;10.93;64.68;99452.88;4959115;28;20398;-69
2023/04/12 05:11:19;;;;;;;13.23;3.95;;;;;;;10.95;64.38;99448.44;4957911;28;20027;-69
2023/04/12 05:13:44;;;;;;;9.77;3.90;;;;;;;10.94;64.31;99457.25;4958830;28;20027;-69
2023/04/12 05:16:10;;;;;;;15.03;3.90;;;;;;;10.93;64.47;99455.50;4961638;28;20070;-69
2023/04/12 05:18:36;;;;;;;8.68;3.47;;;;;;;10.92;64.21;99461.66;4976878;28;20028;-69
2023/04/12 05:21:05;;;;;;;11.50;3.80;;;;;;;10.90;64.26;99464.31;4970410;28;20037;-69
2023/04/12 05:23:38;;;;;;;7.97;3.40;;;;;;;10.87;64.41;99463.53;4978162;28;20053;-69
2023/04/12 05:26:04;;;;;;;10.48;4.18;;;;;;;10.84;64.57;99477.59;4978301;28;20034;-69
2023/04/12 05:28:29;;;;;;;10.33;4.40;;;;;;;10.84;64.53;99472.34;4973196;28;20027;-69
2023/04/12 05:30:55;;;;;;;9.48;4.30;;;;;;;10.86;64.65;99469.69;4973679;28;20038;-69
2023/04/12 05:33:20;;;;;;;9.13;4.47;;;;;;;10.87;64.34;99466.16;4973216;28;20038;-69
2023/04/12 05:35:45;;;;;;;10.07;4.43;;;;;;;10.88;64.73;99467.91;4971457;28;20042;-70
2023/04/12 05:38:11;;;;;;;12.23;4.17;;;;;;;10.86;64.40;99464.44;4973622;28;20046;-69
2023/04/12 05:40:37;;;;;;;11.30;4.80;;;;;;;10.87;64.20;99464.38;4971938;28;20049;-69
2023/04/12 05:43:02;;;;;;;10.97;4.63;;;;;;;10.86;64.26;99452.09;4968929;28;20277;-69
2023/04/12 05:45:28;;;;;;;10.90;5.07;;;;;;;10.83;64.67;99457.44;4976858;28;20035;-69
2023/04/12 05:47:54;;;;;;;10.87;5.07;;;;;;;10.74;64.64;99449.72;4972701;28;20077;-69
2023/04/12 05:50:20;;;;;;;13.00;5.32;;;;;;;10.71;65.12;99444.47;4963882;28;20504;-69
2023/04/12 05:52:47;;;;;;;14.27;5.77;;;;;;;10.73;65.34;99437.41;4975371;28;20118;-69
2023/04/12 05:55:17;;;;;;;12.18;5.35;;;;;;;10.85;64.97;99433.69;4969144;28;20491;-69
2023/04/12 05:57:44;;;;;;;16.13;5.95;;;;;;;11.03;64.48;99440.41;4958296;28;20034;-69
2023/04/12 06:00:15;;;;;;;11.27;5.30;;;;;;;11.23;64.16;99439.13;4958397;28;20074;-69
2023/04/12 06:02:44;;;;;;;11.10;5.73;;;;;;;11.26;64.32;99441.72;4962109;28;20067;-69
2023/04/12 06:05:11;;;;;;;13.15;5.40;;;;;;;11.34;64.14;99445.03;4962337;28;20054;-69
2023/04/12 06:07:38;;;;;;;12.50;5.63;;;;;;;11.45;63.69;99443.06;4965265;28;20487;-69
2023/04/12 06:10:04;;;;;;;12.30;5.82;;;;;;;11.50;64.54;99448.22;4962359;28;20028;-68
2023/04/12 06:12:30;;;;;;;14.45;6.53;;;;;;;11.58;64.35;99463.91;4962210;28;20031;-69
2023/04/12 06:14:55;;;;;;;14.27;5.80;;;;;;;11.66;64.11;99456.69;4967350;28;20451;-69
2023/04/12 06:17:21;;;;;;;11.50;5.20;;;;;;;11.81;63.79;99465.16;4974401;28;20027;-68
2023/04/12 06:19:46;;;;;;;13.80;6.10;;;;;;;11.91;63.63;99469.31;4975267;28;20544;-68
2023/04/12 06:22:12;;;;;;;12.43;5.43;;;;;;;12.01;63.33;99476.19;4981228;28;20038;-69
2023/04/12 06:24:37;;;;;;;11.70;5.10;;;;;;;12.17;63.33;99473.16;4971164;28;20033;-69
2023/04/12 06:27:03;;;;;;;15.00;5.63;;;;;;;12.31;63.08;99478.16;4966427;28;20027;-69
2023/04/12 06:29:28;;;;;;;16.53;6.03;;;;;;;12.35;63.54;99485.09;4977360;28;20485;-69
2023/04/12 06:31:53;;;;;;;14.40;5.95;;;;;;;12.35;63.72;99477.16;4969024;28;20081;-70
2023/04/12 06:34:19;;;;;;;14.97;6.40;;;;;;;12.29;64.17;99483.44;4966026;28;20039;-69
2023/04/12 06:36:46;;;;;;;12.63;5.60;;;;;;;12.20;64.56;99488.97;4977874;28;20042;-69
2023/04/12 06:39:12;;;;;;;13.00;5.88;;;;;;;12.15;65.00;99486.41;4962090;28;20031;-69
2023/04/12 06:41:38;;;;;;;11.80;5.32;;;;;;;12.12;64.79;99501.44;4961420;28;20035;-69
2023/04/12 06:44:04;;;;;;;10.37;5.50;;;;;;;12.11;64.89;99497.94;4964419;28;20110;-69
2023/04/12 06:46:30;;;;;;;9.82;5.15;;;;;;;12.14;65.14;99497.00;4964973;28;20391;-69
2023/04/12 06:48:55;;;;;;;10.93;5.20;;;;;;;12.20;65.05;99488.97;4965123;28;20057;-69
2023/04/12 06:51:20;;;;;;;14.23;5.63;;;;;;;12.24;65.30;99485.34;4961592;28;20102;-69
2023/04/12 06:53:46;;;;;;;11.77;5.10;;;;;;;12.28;65.49;99483.47;4960103;28;20049;-69
2023/04/12 06:56:11;;;;;;;12.97;5.13;;;;;;;12.36;65.31;99486.81;4960016;28;20031;-69
2023/04/12 06:58:37;;;;;;;11.63;5.07;;;;;;;12.47;65.69;99491.84;4961300;28;20027;-69
2023/04/12 07:01:06;;;;;;;9.97;4.90;;;;;;;12.53;65.39;99496.97;4961242;28;20035;-69
2023/04/12 07:03:32;;;;;;;9.40;5.00;;;;;;;12.67;64.94;99485.19;4961153;28;20646;-69
2023/04/12 07:06:01;;;;;;;11.32;5.10;;;;;;;12.78;65.31;99477.84;4961152;28;20035;-69
2023/04/12 07:08:28;;;;;;;12.52;5.22;;;;;;;12.83;65.39;99481.22;4961611;28;20175;-69
2023/04/12 07:10:54;;;;;;;12.85;4.88;;;;;;;12.83;65.50;99477.75;4977988;28;20030;-70
2023/04/12 07:13:19;;;;;;;10.30;4.65;;;;;;;12.83;65.47;99475.94;4975459;28;20054;-69
2023/04/12 07:15:46;;;;;;;12.67;4.63;;;;;;;12.78;65.88;99477.84;4965542;28;20047;-70
2023/04/12 07:18:11;;;;;;;11.77;5.03;;;;;;;12.77;65.71;99473.47;4974399;28;20054;-69
2023/04/12 07:20:36;;;;;;;10.87;4.97;;;;;;;12.80;66.15;99468.09;4973885;28;20034;-69
2023/04/12 07:23:02;;;;;;;8.57;4.77;;;;;;;12.86;65.98;99470.59;4979007;28;20082;-70
2023/04/12 07:25:27;;;;;;;8.73;4.60;;;;;;;12.97;65.61;99458.88;4980206;28;20109;-69
2023/04/12 07:27:53;;;;;;;11.40;4.47;;;;;;;13.07;65.45;99450.66;4975729;28;20031;-73
2023/04/12 07:30:18;;;;;;;14.07;4.90;;;;;;;13.12;65.56;99449.66;4977490;28;20039;-70
2023/04/12 07:32:44;;;;;;;10.63;4.60;;;;;;;13.17;65.35;99455.69;4959525;28;20027;-70
2023/04/12 07:35:09;;;;;;;14.17;4.23;;;;;;;13.19;65.73;99462.66;4965389;28;20034;-70
2023/04/12 07:37:35;;;;;;;11.97;4.80;;;;;;;13.23;65.58;99449.34;4960795;28;20271;-70
2023/04/12 07:40:01;;;;;;;12.60;4.20;;;;;;;13.27;65.32;99446.59;4966210;28;20030;-70
2023/04/12 07:42:26;;;;;;;10.70;4.53;;;;;;;13.32;65.36;99438.50;4965149;28;20035;-72
2023/04/12 07:44:51;;;;;;;15.03;4.80;;;;;;;13.40;65.30;99433.88;4979683;28;20114;-72
2023/04/12 07:47:17;;;;;;;18.67;4.43;;;;;;;13.52;65.01;99429.16;4969344;28;20031;-70
2023/04/12 07:49:42;;;;;;;10.70;3.90;;;;;;;13.63;65.29;99421.78;4960471;28;20112;-69
2023/04/12 07:52:08;;;;;;;12.38;4.18;;;;;;;13.75;64.35;99418.75;4960450;28;20431;-69
2023/04/12 07:54:33;;;;;;;9.97;3.93;;;;;;;13.89;64.40;99417.47;4963775;28;20038;-69
2023/04/12 07:57:01;;;;;;;17.33;4.20;;;;;;;14.00;64.41;99420.63;4979868;28;20031;-70
2023/04/12 07:59:27;;;;;;;14.73;4.20;;;;;;;14.24;63.82;99431.34;4979375;28;20110;-69
2023/04/12 08:01:52;;;;;;;10.37;4.00;;;;;;;14.41;63.35;99428.13;4979535;28;20059;-70
2023/04/12 08:04:17;;;;;;;9.77;3.67;;;;;;;14.63;63.08;99432.69;4979548;28;20031;-70
2023/04/12 08:06:43;;;;;;;9.67;3.10;;;;;;;14.80;62.43;99420.69;4962306;28;20066;-70
2023/04/12 08:09:08;;;;;;;10.57;3.50;;;;;;;14.88;62.11;99422.16;4976258;28;20189;-70
2023/04/12 08:11:34;;;;;;;10.07;3.20;;;;;;;14.95;62.12;99429.88;4971941;28;20033;-69
2023/04/12 08:13:59;;;;;;;9.07;2.95;;;;;;;14.99;62.35;99432.38;4964875;28;20388;-70
2023/04/12 08:16:25;;;;;;;11.33;3.20;;;;;;;15.01;61.96;99430.53;4964795;28;20138;-69
2023/04/12 08:18:51;;;;;;;8.25;2.83;;;;;;;15.03;61.87;99438.41;4978187;28;20027;-68
2023/04/12 08:21:16;;;;;;;8.57;3.07;;;;;;;15.05;61.60;99442.75;4964834;28;20046;-68
2023/04/12 08:23:42;;;;;;;12.97;3.13;;;;;;;15.09;61.84;99440.88;4959479;28;20067;-68
2023/04/12 08:26:08;;;;;;;13.02;3.13;;;;;;;15.17;61.64;99445.88;4975680;28;20090;-69
2023/04/12 08:28:33;;;;;;;11.20;3.63;;;;;;;15.23;61.02;99445.69;4966684;28;20073;-69
2023/04/12 08:30:59;;;;;;;11.23;3.10;;;;;;;15.27;61.05;99446.41;4965332;28;20502;-69
2023/04/12 08:33:24;;;;;;;12.47;2.73;;;;;;;15.33;60.98;99451.50;4978178;28;20278;-69
2023/04/12 08:35:51;;;;;;;11.20;2.50;;;;;;;15.36;60.40;99451.41;4969014;28;20089;-69
2023/04/12 08:38:17;;;;;;;8.88;2.20;;;;;;;15.43;60.37;99452.88;4965399;28;20031;-69
2023/04/12 08:40:43;;;;;;;10.18;2.60;;;;;;;15.52;59.91;99450.78;4959645;28;20039;-69
2023/04/12 08:43:11;;;;;;;10.53;2.73;;;;;;;15.61;59.87;99445.16;4968059;28;20085;-69
2023/04/12 08:45:36;;;;;;;11.95;2.50;;;;;;;15.69;59.46;99456.34;4970128;28;20104;-69
2023/04/12 08:48:04;;;;;;;11.73;2.80;;;;;;;15.72;59.14;99448.25;4978084;28;20483;-69
2023/04/12 08:50:31;;;;;;;12.05;2.25;;;;;;;15.73;58.75;99444.66;4969453;28;20026;-69
2023/04/12 08:52:57;;;;;;;6.78;2.28;;;;;;;15.74;58.56;99446.41;4959243;28;20046;-69
2023/04/12 08:55:23;;;;;;;10.70;2.58;;;;;;;15.74;58.59;99446.41;4959366;28;20027;-69
2023/04/12 08:57:52;;;;;;;9.27;2.37;;;;;;;15.78;58.32;99453.31;4959016;28;20054;-70
2023/04/12 09:00:19;;;;;;;8.00;2.58;;;;;;;15.82;58.31;99451.41;4959632;28;20041;-70
2023/04/12 09:02:47;;;;;;;7.50;2.33;;;;;;;15.89;58.24;99449.44;4963025;28;20398;-70
2023/04/12 09:05:13;;;;;;;11.03;3.00;;;;;;;15.95;58.13;99449.19;4964065;28;20029;-70
2023/04/12 09:07:39;;;;;;;8.77;2.40;;;;;;;16.02;57.87;99442.69;4959270;28;20078;-70
2023/04/12 09:10:05;;;;;;;9.10;2.40;;;;;;;16.08;57.56;99449.56;4957901;28;20534;-70
2023/04/12 09:12:31;;;;;;;10.63;2.85;;;;;;;16.14;57.33;99443.13;4958992;28;20031;-70
2023/04/12 09:15:11;;;;;;;16.20;2.60;;;;;;;16.10;57.23;99441.53;4962215;28;20430;-70
2023/04/12 09:17:37;;;;;;;12.57;2.60;;;;;;;16.17;57.26;99448.31;4976708;28;20060;-70
2023/04/12 09:20:22;;;;;;;8.68;2.42;;;;;;;16.23;56.88;99449.88;4972401;28;20063;-70
2023/04/12 09:22:48;;;;;;;11.43;2.38;;;;;;;16.28;56.70;99445.22;4964647;28;20097;-70
2023/04/12 09:25:15;;;;;;;6.60;1.97;;;;;;;16.37;56.53;99450.16;4977632;28;20026;-70
2023/04/12 09:27:56;;;;;;;8.70;2.30;;;;;;;16.40;56.35;99439.44;4977663;28;20475;-70
2023/04/12 09:30:21;;;;;;;11.70;2.25;;;;;;;16.53;55.98;99445.09;4966087;28;20031;-70
2023/04/12 09:32:48;;;;;;;7.97;1.83;;;;;;;16.64;55.52;99453.47;4975058;28;20034;-70
2023/04/12 09:35:13;;;;;;;8.63;2.10;;;;;;;16.73;54.92;99452.22;4977654;28;20107;-70
2023/04/12 09:37:39;;;;;;;7.03;2.10;;;;;;;16.82;54.95;99444.75;4977735;28;20074;-70
2023/04/12 09:40:06;;;;;;;8.38;1.90;;;;;;;16.87;54.10;99438.31;4977933;28;20030;-70
2023/04/12 09:42:50;;;;;;;7.40;1.83;;;;;;;16.92;53.50;99436.31;4976532;28;20046;-70
2023/04/12 09:45:24;;;;;;;9.03;2.10;;;;;;;17.01;53.59;99439.56;4977569;28;20442;-70
2023/04/12 09:47:50;;;;;;;10.95;2.10;;;;;;;17.13;53.24;99449.63;4961931;28;20102;-69
2023/04/12 09:50:27;;;;;;;14.38;2.67;;;;;;;17.25;53.16;99448.22;4956136;28;20027;-70
2023/04/12 09:52:56;;;;;;;11.55;1.90;;;;;;;17.35;52.96;99443.34;4958444;28;20027;-69
2023/04/12 09:55:26;;;;;;;6.80;1.98;;;;;;;17.43;52.92;99435.88;4958601;28;20035;-69
2023/04/12 09:57:53;;;;;;;9.73;2.13;;;;;;;17.52;52.61;99444.38;4958221;28;20031;-69
2023/04/12 10:00:22;;;;;;;18.73;2.45;;;;;;;17.61;52.42;99433.31;4958310;28;20034;-69
2023/04/12 10:02:50;;;;;;;7.32;1.70;;;;;;;17.68;51.80;99433.88;4958519;28;20429;-69
2023/04/12 10:05:18;;;;;;;8.13;1.95;;;;;;;17.72;52.06;99430.97;4957014;28;20037;-69
2023/04/12 10:07:44;;;;;;;5.63;1.88;;;;;;;17.81;52.00;99434.16;4958137;28;20083;-69
2023/04/12 10:10:11;;;;;;;13.27;2.37;;;;;;;17.84;51.46;99442.84;4957145;28;20023;-69
2023/04/12 10:12:39;;;;;;;12.18;2.35;;;;;;;17.86;51.42;99437.47;4956981;28;20035;-69
2023/04/12 10:15:11;;;;;;;12.88;2.28;;;;;;;17.87;51.26;99441.84;4957783;28;20028;-69
2023/04/12 10:17:43;;;;;;;9.77;1.83;;;;;;;17.94;51.59;99437.94;4972319;28;20019;-69
2023/04/12 10:20:10;;;;;;;11.00;2.22;;;;;;;18.02;51.42;99433.19;4971602;28;20495;-69
2023/04/12 10:22:38;;;;;;;9.83;2.53;;;;;;;18.10;51.39;99429.25;4976001;28;20126;-69
2023/04/12 10:25:04;;;;;;;6.40;1.90;;;;;;;18.16;51.23;99426.28;4977611;28;20038;-70
2023/04/12 10:27:30;;;;;;;9.10;2.05;;;;;;;18.22;50.92;99439.34;4968814;28;20158;-71
2023/04/12 10:30:18;;;;;;;10.07;2.50;;;;;;;18.16;50.41;99424.50;4972262;28;20030;-71
2023/04/12 10:32:44;;;;;;;9.73;2.22;;;;;;;18.25;50.72;99417.88;4976557;28;20129;-71
2023/04/12 10:35:10;;;;;;;10.30;1.90;;;;;;;18.29;50.61;99422.09;4969704;28;20136;-71
2023/04/12 10:38:01;;;;;;;12.35;2.60;;;;;;;18.34;50.51;99420.06;4956887;28;20029;-71
2023/04/12 10:40:30;;;;;;;7.47;1.90;;;;;;;18.46;50.49;99407.91;4957131;28;20027;-71
2023/04/12 10:43:17;;;;;;;10.10;2.00;;;;;;;18.52;50.34;99404.06;4955875;28;20038;-70
2023/04/12 10:45:43;;;;;;;8.77;2.20;;;;;;;18.68;49.92;99408.59;4963799;28;20062;-70
2023/04/12 10:48:37;;;;;;;7.50;1.88;;;;;;;18.70;49.71;99407.59;4968807;28;20046;-70
2023/04/12 10:51:17;;;;;;;8.18;2.28;;;;;;;18.76;49.10;99401.09;4979995;28;20152;-70
2023/04/12 10:53:43;;;;;;;8.40;1.80;;;;;;;18.79;49.12;99391.09;4978280;28;20077;-70
2023/04/12 10:56:39;;;;;;;5.57;1.70;;;;;;;18.74;49.35;99387.81;4979576;28;20035;-70
2023/04/12 10:59:09;;;;;;;8.35;2.10;;;;;;;18.82;48.57;99392.75;4978235;28;20043;-70
2023/04/12 11:01:35;;;;;;;9.70;1.90;;;;;;;18.83;48.46;99402.47;4979319;28;20030;-70
2023/04/12 11:04:17;;;;;;;8.68;2.10;;;;;;;18.86;48.11;99396.13;4979953;28;20027;-70
2023/04/12 11:06:51;;;;;;;8.70;2.10;;;;;;;18.92;47.52;99402.00;4979506;28;20046;-70
2023/04/12 11:09:27;;;;;;;4.80;1.50;;;;;;;18.94;47.29;99404.59;4978071;28;20030;-70
2023/04/12 11:11:57;;;;;;;6.78;1.65;;;;;;;18.94;47.30;99400.13;4977993;28;20088;-72
2023/04/12 11:14:47;;;;;;;7.68;1.77;;;;;;;18.96;46.57;99396.53;4975459;28;20102;-72
2023/04/12 11:17:13;;;;;;;4.85;1.60;;;;;;;19.01;47.09;99399.84;4972441;28;20458;-71
2023/04/12 11:19:49;;;;;;;7.63;1.70;;;;;;;18.98;46.32;99390.16;4972537;28;20054;-72
2023/04/12 11:22:16;;;;;;;6.78;1.48;;;;;;;19.00;47.02;99392.78;4966189;28;20390;-71
2023/04/12 11:24:53;;;;;;;5.90;1.63;;;;;;;18.98;46.98;99397.28;4973906;28;20061;-71
2023/04/12 11:27:21;;;;;;;7.40;1.75;;;;;;;18.86;47.25;99396.13;4965124;28;20031;-71
2023/04/12 11:29:59;;;;;;;9.00;1.90;;;;;;;18.70;47.40;99385.41;4969092;28;20027;-70
2023/04/12 11:32:27;;;;;;;5.88;1.50;;;;;;;18.63;47.58;99388.38;4964838;28;20050;-70